sensor_id;sensor_type;location;lat;lon;timestamp;P1;durP1;ratioP1;P2;durP2;ratioP2
25479;SDS011;13393;49.378;8.686;2023-04-25T00:00:42;5.82;;;4.32;;
25479;SDS011;13393;49.378;8.686;2023-04-25T00:03:08;5.20;;;4.28;;
25479;SDS011;13393;49.378;8.686;2023-04-25T00:05:34;5.88;;;4.82;;
25479;SDS011;13393;49.378;8.686;2023-04-25T00:08:03;5.03;;;4.15;;
25479;SDS011;13393;49.378;8.686;2023-04-25T00:10:32;5.88;;;4.68;;
25479;SDS011;13393;49.378;8.686;2023-04-25T00:12:58;4.90;;;4.43;;
25479;SDS011;13393;49.378;8.686;2023-04-25T00:15:27;5.47;;;4.50;;
25479;SDS011;13393;49.378;8.686;2023-04-25T00:17:55;4.47;;;4.07;;
25479;SDS011;13393;49.378;8.686;2023-04-25T00:20:21;5.00;;;4.50;;
25479;SDS011;13393;49.378;8.686;2023-04-25T00:22:48;4.60;;;4.10;;
25479;SDS011;13393;49.378;8.686;2023-04-25T00:25:16;5.65;;;4.15;;
25479;SDS011;13393;49.378;8.686;2023-04-25T00:27:42;5.20;;;4.32;;
25479;SDS011;13393;49.378;8.686;2023-04-25T00:30:09;4.50;;;4.10;;
25479;SDS011;13393;49.378;8.686;2023-04-25T00:32:35;4.50;;;4.10;;
25479;SDS011;13393;49.378;8.686;2023-04-25T00:35:01;5.00;;;4.50;;
25479;SDS011;13393;49.378;8.686;2023-04-25T00:37:28;4.95;;;4.35;;
25479;SDS011;13393;49.378;8.686;2023-04-25T00:39:54;6.22;;;4.72;;
25479;SDS011;13393;49.378;8.686;2023-04-25T00:42:22;4.78;;;4.22;;
25479;SDS011;13393;49.378;8.686;2023-04-25T00:44:49;5.47;;;4.72;;
25479;SDS011;13393;49.378;8.686;2023-04-25T00:47:15;6.13;;;4.30;;
25479;SDS011;13393;49.378;8.686;2023-04-25T00:49:42;5.53;;;4.75;;
25479;SDS011;13393;49.378;8.686;2023-04-25T00:52:08;5.20;;;4.70;;
25479;SDS011;13393;49.378;8.686;2023-04-25T00:54:35;6.07;;;4.80;;
25479;SDS011;13393;49.378;8.686;2023-04-25T00:57:01;4.80;;;4.40;;
25479;SDS011;13393;49.378;8.686;2023-04-25T00:59:29;4.88;;;4.38;;
25479;SDS011;13393;49.378;8.686;2023-04-25T01:01:56;4.78;;;4.38;;
25479;SDS011;13393;49.378;8.686;2023-04-25T01:04:22;5.90;;;4.30;;
25479;SDS011;13393;49.378;8.686;2023-04-25T01:06:49;4.88;;;4.30;;
25479;SDS011;13393;49.378;8.686;2023-04-25T01:09:15;6.10;;;4.68;;
25479;SDS011;13393;49.378;8.686;2023-04-25T01:11:42;5.07;;;4.57;;
25479;SDS011;13393;49.378;8.686;2023-04-25T01:14:08;5.53;;;4.90;;
25479;SDS011;13393;49.378;8.686;2023-04-25T01:16:36;5.18;;;4.68;;
25479;SDS011;13393;49.378;8.686;2023-04-25T01:19:03;5.63;;;4.45;;
25479;SDS011;13393;49.378;8.686;2023-04-25T01:21:32;4.55;;;4.05;;
25479;SDS011;13393;49.378;8.686;2023-04-25T01:23:58;4.80;;;4.40;;
25479;SDS011;13393;49.378;8.686;2023-04-25T01:26:25;4.32;;;3.92;;
25479;SDS011;13393;49.378;8.686;2023-04-25T01:28:51;4.53;;;3.85;;
25479;SDS011;13393;49.378;8.686;2023-04-25T01:31:17;7.35;;;4.85;;
25479;SDS011;13393;49.378;8.686;2023-04-25T01:33:44;5.10;;;4.32;;
25479;SDS011;13393;49.378;8.686;2023-04-25T01:36:11;7.45;;;5.13;;
25479;SDS011;13393;49.378;8.686;2023-04-25T01:38:40;5.30;;;4.45;;
25479;SDS011;13393;49.378;8.686;2023-04-25T01:41:06;5.25;;;4.45;;
25479;SDS011;13393;49.378;8.686;2023-04-25T01:43:33;6.05;;;5.40;;
25479;SDS011;13393;49.378;8.686;2023-04-25T01:45:59;6.00;;;5.00;;
25479;SDS011;13393;49.378;8.686;2023-04-25T01:48:25;6.47;;;4.80;;
25479;SDS011;13393;49.378;8.686;2023-04-25T01:50:52;5.82;;;5.22;;
25479;SDS011;13393;49.378;8.686;2023-04-25T01:53:18;5.97;;;5.47;;
25479;SDS011;13393;49.378;8.686;2023-04-25T01:55:46;5.45;;;4.80;;
25479;SDS011;13393;49.378;8.686;2023-04-25T01:58:12;5.78;;;4.97;;
25479;SDS011;13393;49.378;8.686;2023-04-25T02:00:38;6.25;;;5.25;;
25479;SDS011;13393;49.378;8.686;2023-04-25T02:03:05;6.82;;;5.80;;
25479;SDS011;13393;49.378;8.686;2023-04-25T02:05:34;6.88;;;5.68;;
25479;SDS011;13393;49.378;8.686;2023-04-25T02:08:00;7.00;;;5.72;;
25479;SDS011;13393;49.378;8.686;2023-04-25T02:10:26;6.00;;;5.40;;
25479;SDS011;13393;49.378;8.686;2023-04-25T02:12:54;7.25;;;5.50;;
25479;SDS011;13393;49.378;8.686;2023-04-25T02:15:20;6.78;;;5.47;;
25479;SDS011;13393;49.378;8.686;2023-04-25T02:17:47;6.43;;;5.65;;
25479;SDS011;13393;49.378;8.686;2023-04-25T02:20:13;8.45;;;5.50;;
25479;SDS011;13393;49.378;8.686;2023-04-25T02:22:40;6.45;;;5.55;;
25479;SDS011;13393;49.378;8.686;2023-04-25T02:25:07;7.20;;;5.95;;
25479;SDS011;13393;49.378;8.686;2023-04-25T02:27:34;8.88;;;5.35;;
25479;SDS011;13393;49.378;8.686;2023-04-25T02:30:02;7.47;;;5.88;;
25479;SDS011;13393;49.378;8.686;2023-04-25T02:32:29;6.82;;;6.13;;
25479;SDS011;13393;49.378;8.686;2023-04-25T02:34:56;6.13;;;5.63;;
25479;SDS011;13393;49.378;8.686;2023-04-25T02:37:23;8.25;;;5.97;;
25479;SDS011;13393;49.378;8.686;2023-04-25T02:39:50;7.93;;;6.15;;
25479;SDS011;13393;49.378;8.686;2023-04-25T02:42:16;6.75;;;5.70;;
25479;SDS011;13393;49.378;8.686;2023-04-25T02:44:42;6.88;;;6.18;;
25479;SDS011;13393;49.378;8.686;2023-04-25T02:47:10;6.95;;;5.45;;
25479;SDS011;13393;49.378;8.686;2023-04-25T02:49:36;8.45;;;6.30;;
25479;SDS011;13393;49.378;8.686;2023-04-25T02:52:03;7.70;;;6.25;;
25479;SDS011;13393;49.378;8.686;2023-04-25T02:54:29;6.13;;;5.53;;
25479;SDS011;13393;49.378;8.686;2023-04-25T02:56:55;9.05;;;6.43;;
25479;SDS011;13393;49.378;8.686;2023-04-25T02:59:22;7.22;;;6.53;;
25479;SDS011;13393;49.378;8.686;2023-04-25T03:01:48;7.55;;;6.70;;
25479;SDS011;13393;49.378;8.686;2023-04-25T03:04:16;8.43;;;5.85;;
25479;SDS011;13393;49.378;8.686;2023-04-25T03:06:43;7.90;;;6.40;;
25479;SDS011;13393;49.378;8.686;2023-04-25T03:09:10;9.52;;;6.82;;
25479;SDS011;13393;49.378;8.686;2023-04-25T03:11:36;7.78;;;6.45;;
25479;SDS011;13393;49.378;8.686;2023-04-25T03:14:03;9.23;;;6.40;;
25479;SDS011;13393;49.378;8.686;2023-04-25T03:16:29;7.13;;;6.10;;
25479;SDS011;13393;49.378;8.686;2023-04-25T03:18:56;8.43;;;6.55;;
25479;SDS011;13393;49.378;8.686;2023-04-25T03:21:23;7.78;;;6.43;;
25479;SDS011;13393;49.378;8.686;2023-04-25T03:23:50;9.30;;;7.78;;
25479;SDS011;13393;49.378;8.686;2023-04-25T03:26:16;11.00;;;8.10;;
25479;SDS011;13393;49.378;8.686;2023-04-25T03:28:42;10.70;;;7.28;;
25479;SDS011;13393;49.378;8.686;2023-04-25T03:31:09;8.25;;;7.03;;
25479;SDS011;13393;49.378;8.686;2023-04-25T03:33:35;7.68;;;6.82;;
25479;SDS011;13393;49.378;8.686;2023-04-25T03:36:01;9.52;;;7.68;;
25479;SDS011;13393;49.378;8.686;2023-04-25T03:38:29;8.40;;;7.03;;
25479;SDS011;13393;49.378;8.686;2023-04-25T03:40:55;8.13;;;6.93;;
25479;SDS011;13393;49.378;8.686;2023-04-25T03:43:22;8.80;;;7.90;;
25479;SDS011;13393;49.378;8.686;2023-04-25T03:45:48;9.40;;;8.48;;
25479;SDS011;13393;49.378;8.686;2023-04-25T03:48:14;9.15;;;7.70;;
25479;SDS011;13393;49.378;8.686;2023-04-25T03:50:41;10.02;;;8.45;;
25479;SDS011;13393;49.378;8.686;2023-04-25T03:53:07;8.70;;;7.68;;
25479;SDS011;13393;49.378;8.686;2023-04-25T03:55:35;9.95;;;7.68;;
25479;SDS011;13393;49.378;8.686;2023-04-25T03:58:01;9.00;;;7.70;;
25479;SDS011;13393;49.378;8.686;2023-04-25T04:00:27;10.40;;;8.38;;
25479;SDS011;13393;49.378;8.686;2023-04-25T04:02:54;11.57;;;8.35;;
25479;SDS011;13393;49.378;8.686;2023-04-25T04:05:20;10.65;;;8.00;;
25479;SDS011;13393;49.378;8.686;2023-04-25T04:07:47;8.50;;;7.57;;
25479;SDS011;13393;49.378;8.686;2023-04-25T04:10:13;10.27;;;8.60;;
25479;SDS011;13393;49.378;8.686;2023-04-25T04:12:41;9.88;;;8.40;;
25479;SDS011;13393;49.378;8.686;2023-04-25T04:15:07;10.90;;;8.40;;
25479;SDS011;13393;49.378;8.686;2023-04-25T04:17:34;10.05;;;8.35;;
25479;SDS011;13393;49.378;8.686;2023-04-25T04:20:01;9.98;;;8.50;;
25479;SDS011;13393;49.378;8.686;2023-04-25T04:22:28;9.52;;;7.45;;
25479;SDS011;13393;49.378;8.686;2023-04-25T04:24:54;11.43;;;8.20;;
25479;SDS011;13393;49.378;8.686;2023-04-25T04:27:21;10.13;;;7.60;;
25479;SDS011;13393;49.378;8.686;2023-04-25T04:29:49;12.50;;;7.85;;
25479;SDS011;13393;49.378;8.686;2023-04-25T04:32:17;9.68;;;8.00;;
25479;SDS011;13393;49.378;8.686;2023-04-25T04:34:43;11.32;;;7.68;;
25479;SDS011;13393;49.378;8.686;2023-04-25T04:37:12;9.48;;;7.72;;
25479;SDS011;13393;49.378;8.686;2023-04-25T04:39:39;9.10;;;7.57;;
25479;SDS011;13393;49.378;8.686;2023-04-25T04:42:05;8.90;;;7.40;;
25479;SDS011;13393;49.378;8.686;2023-04-25T04:44:32;10.85;;;8.05;;
25479;SDS011;13393;49.378;8.686;2023-04-25T04:47:00;9.55;;;8.45;;
25479;SDS011;13393;49.378;8.686;2023-04-25T04:49:28;11.13;;;8.65;;
25479;SDS011;13393;49.378;8.686;2023-04-25T04:51:55;9.38;;;8.38;;
25479;SDS011;13393;49.378;8.686;2023-04-25T04:54:21;9.15;;;8.25;;
25479;SDS011;13393;49.378;8.686;2023-04-25T04:56:47;12.00;;;8.73;;
25479;SDS011;13393;49.378;8.686;2023-04-25T04:59:14;10.00;;;8.00;;
25479;SDS011;13393;49.378;8.686;2023-04-25T05:01:40;10.95;;;8.80;;
25479;SDS011;13393;49.378;8.686;2023-04-25T05:04:08;10.77;;;8.52;;
25479;SDS011;13393;49.378;8.686;2023-04-25T05:06:34;9.48;;;8.35;;
25479;SDS011;13393;49.378;8.686;2023-04-25T05:09:00;9.77;;;8.75;;
25479;SDS011;13393;49.378;8.686;2023-04-25T05:11:27;10.52;;;9.23;;
25479;SDS011;13393;49.378;8.686;2023-04-25T05:13:53;9.23;;;8.23;;
25479;SDS011;13393;49.378;8.686;2023-04-25T05:16:19;12.55;;;9.07;;
25479;SDS011;13393;49.378;8.686;2023-04-25T05:18:46;11.50;;;9.23;;
25479;SDS011;13393;49.378;8.686;2023-04-25T05:21:13;12.23;;;9.05;;
25479;SDS011;13393;49.378;8.686;2023-04-25T05:23:40;9.50;;;8.50;;
25479;SDS011;13393;49.378;8.686;2023-04-25T05:26:06;9.73;;;8.32;;
25479;SDS011;13393;49.378;8.686;2023-04-25T05:28:38;9.77;;;8.48;;
25479;SDS011;13393;49.378;8.686;2023-04-25T05:31:04;9.32;;;8.13;;
25479;SDS011;13393;49.378;8.686;2023-04-25T05:33:31;9.43;;;8.45;;
25479;SDS011;13393;49.378;8.686;2023-04-25T05:35:57;9.35;;;8.45;;
25479;SDS011;13393;49.378;8.686;2023-04-25T05:38:25;9.43;;;8.15;;
25479;SDS011;13393;49.378;8.686;2023-04-25T05:40:51;11.25;;;8.35;;
25479;SDS011;13393;49.378;8.686;2023-04-25T05:43:18;13.80;;;9.02;;
25479;SDS011;13393;49.378;8.686;2023-04-25T05:45:44;12.85;;;9.23;;
25479;SDS011;13393;49.378;8.686;2023-04-25T05:48:10;10.75;;;9.18;;
25479;SDS011;13393;49.378;8.686;2023-04-25T05:50:37;10.30;;;9.23;;
25479;SDS011;13393;49.378;8.686;2023-04-25T05:53:03;11.93;;;8.77;;
25479;SDS011;13393;49.378;8.686;2023-04-25T05:55:32;12.32;;;8.35;;
25479;SDS011;13393;49.378;8.686;2023-04-25T05:57:58;10.95;;;8.70;;
25479;SDS011;13393;49.378;8.686;2023-04-25T06:00:24;12.13;;;8.63;;
25479;SDS011;13393;49.378;8.686;2023-04-25T06:02:51;11.82;;;9.32;;
25479;SDS011;13393;49.378;8.686;2023-04-25T06:05:17;10.88;;;8.65;;
25479;SDS011;13393;49.378;8.686;2023-04-25T06:07:44;10.30;;;9.20;;
25479;SDS011;13393;49.378;8.686;2023-04-25T06:10:10;11.27;;;9.25;;
25479;SDS011;13393;49.378;8.686;2023-04-25T06:12:38;13.45;;;9.85;;
25479;SDS011;13393;49.378;8.686;2023-04-25T06:15:05;12.05;;;8.85;;
25479;SDS011;13393;49.378;8.686;2023-04-25T06:17:31;11.77;;;9.52;;
25479;SDS011;13393;49.378;8.686;2023-04-25T06:19:57;12.75;;;10.10;;
25479;SDS011;13393;49.378;8.686;2023-04-25T06:22:24;11.82;;;9.80;;
25479;SDS011;13393;49.378;8.686;2023-04-25T06:24:50;10.38;;;8.77;;
25479;SDS011;13393;49.378;8.686;2023-04-25T06:27:17;10.00;;;8.90;;
25479;SDS011;13393;49.378;8.686;2023-04-25T06:29:45;11.35;;;9.48;;
25479;SDS011;13393;49.378;8.686;2023-04-25T06:32:11;12.68;;;9.68;;
25479;SDS011;13393;49.378;8.686;2023-04-25T06:34:37;11.23;;;10.02;;
25479;SDS011;13393;49.378;8.686;2023-04-25T06:37:03;11.52;;;9.90;;
25479;SDS011;13393;49.378;8.686;2023-04-25T06:39:30;13.27;;;10.10;;
25479;SDS011;13393;49.378;8.686;2023-04-25T06:41:56;11.23;;;9.55;;
25479;SDS011;13393;49.378;8.686;2023-04-25T06:44:23;14.05;;;9.60;;
25479;SDS011;13393;49.378;8.686;2023-04-25T06:46:52;12.13;;;9.55;;
25479;SDS011;13393;49.378;8.686;2023-04-25T06:49:18;13.05;;;10.18;;
25479;SDS011;13393;49.378;8.686;2023-04-25T06:51:45;13.02;;;10.70;;
25479;SDS011;13393;49.378;8.686;2023-04-25T06:54:11;12.23;;;10.23;;
25479;SDS011;13393;49.378;8.686;2023-04-25T06:56:37;14.13;;;10.23;;
25479;SDS011;13393;49.378;8.686;2023-04-25T06:59:03;12.60;;;9.73;;
25479;SDS011;13393;49.378;8.686;2023-04-25T07:01:30;11.27;;;9.48;;
25479;SDS011;13393;49.378;8.686;2023-04-25T07:03:58;12.45;;;9.68;;
25479;SDS011;13393;49.378;8.686;2023-04-25T07:06:24;14.88;;;10.55;;
25479;SDS011;13393;49.378;8.686;2023-04-25T07:08:52;13.15;;;10.73;;
25479;SDS011;13393;49.378;8.686;2023-04-25T07:11:19;14.27;;;11.00;;
25479;SDS011;13393;49.378;8.686;2023-04-25T07:13:46;12.98;;;11.05;;
25479;SDS011;13393;49.378;8.686;2023-04-25T07:16:12;14.48;;;11.15;;
25479;SDS011;13393;49.378;8.686;2023-04-25T07:18:38;14.68;;;11.60;;
25479;SDS011;13393;49.378;8.686;2023-04-25T07:21:06;12.68;;;10.02;;
25479;SDS011;13393;49.378;8.686;2023-04-25T07:23:32;13.80;;;9.75;;
25479;SDS011;13393;49.378;8.686;2023-04-25T07:25:59;16.65;;;11.05;;
25479;SDS011;13393;49.378;8.686;2023-04-25T07:28:25;14.00;;;10.98;;
25479;SDS011;13393;49.378;8.686;2023-04-25T07:30:52;14.60;;;10.60;;
25479;SDS011;13393;49.378;8.686;2023-04-25T07:33:18;20.27;;;11.70;;
25479;SDS011;13393;49.378;8.686;2023-04-25T07:35:45;13.77;;;10.68;;
25479;SDS011;13393;49.378;8.686;2023-04-25T07:38:13;18.00;;;10.43;;
25479;SDS011;13393;49.378;8.686;2023-04-25T07:40:39;14.75;;;9.60;;
25479;SDS011;13393;49.378;8.686;2023-04-25T07:43:06;13.88;;;9.23;;
25479;SDS011;13393;49.378;8.686;2023-04-25T07:45:32;15.13;;;9.02;;
25479;SDS011;13393;49.378;8.686;2023-04-25T07:47:58;14.38;;;8.70;;
25479;SDS011;13393;49.378;8.686;2023-04-25T07:50:25;12.43;;;8.20;;
25479;SDS011;13393;49.378;8.686;2023-04-25T07:52:51;12.23;;;7.93;;
25479;SDS011;13393;49.378;8.686;2023-04-25T07:55:19;13.07;;;8.10;;
25479;SDS011;13393;49.378;8.686;2023-04-25T07:57:45;12.13;;;8.15;;
25479;SDS011;13393;49.378;8.686;2023-04-25T08:00:12;15.88;;;8.65;;
25479;SDS011;13393;49.378;8.686;2023-04-25T08:02:39;13.15;;;7.68;;
25479;SDS011;13393;49.378;8.686;2023-04-25T08:05:06;15.57;;;7.72;;
25479;SDS011;13393;49.378;8.686;2023-04-25T08:07:33;13.10;;;7.65;;
25479;SDS011;13393;49.378;8.686;2023-04-25T08:09:59;13.07;;;7.13;;
25479;SDS011;13393;49.378;8.686;2023-04-25T08:12:27;11.63;;;8.02;;
25479;SDS011;13393;49.378;8.686;2023-04-25T08:14:53;23.65;;;10.07;;
25479;SDS011;13393;49.378;8.686;2023-04-25T08:17:19;15.77;;;9.50;;
25479;SDS011;13393;49.378;8.686;2023-04-25T08:19:46;16.00;;;9.18;;
25479;SDS011;13393;49.378;8.686;2023-04-25T08:22:12;16.48;;;9.07;;
25479;SDS011;13393;49.378;8.686;2023-04-25T08:24:39;17.92;;;9.45;;
25479;SDS011;13393;49.378;8.686;2023-04-25T08:27:05;14.70;;;8.45;;
25479;SDS011;13393;49.378;8.686;2023-04-25T08:29:34;19.30;;;9.18;;
25479;SDS011;13393;49.378;8.686;2023-04-25T08:32:00;15.07;;;8.77;;
25479;SDS011;13393;49.378;8.686;2023-04-25T08:34:26;15.23;;;8.30;;
25479;SDS011;13393;49.378;8.686;2023-04-25T08:36:53;15.43;;;8.02;;
25479;SDS011;13393;49.378;8.686;2023-04-25T08:39:19;16.77;;;8.13;;
25479;SDS011;13393;49.378;8.686;2023-04-25T08:41:45;18.67;;;8.60;;
25479;SDS011;13393;49.378;8.686;2023-04-25T08:44:12;15.43;;;8.00;;
25479;SDS011;13393;49.378;8.686;2023-04-25T08:46:40;15.00;;;8.02;;
25479;SDS011;13393;49.378;8.686;2023-04-25T08:49:07;15.60;;;7.78;;
25479;SDS011;13393;49.378;8.686;2023-04-25T08:51:34;20.63;;;8.65;;
25479;SDS011;13393;49.378;8.686;2023-04-25T08:54:04;16.88;;;8.70;;
25479;SDS011;13393;49.378;8.686;2023-04-25T08:56:34;12.88;;;8.15;;
25479;SDS011;13393;49.378;8.686;2023-04-25T08:59:00;15.45;;;7.25;;
25479;SDS011;13393;49.378;8.686;2023-04-25T09:01:27;11.60;;;7.32;;
25479;SDS011;13393;49.378;8.686;2023-04-25T09:03:55;12.23;;;6.88;;
25479;SDS011;13393;49.378;8.686;2023-04-25T09:06:23;12.32;;;6.78;;
25479;SDS011;13393;49.378;8.686;2023-04-25T09:08:50;13.65;;;7.50;;
25479;SDS011;13393;49.378;8.686;2023-04-25T09:11:17;14.88;;;6.68;;
25479;SDS011;13393;49.378;8.686;2023-04-25T09:13:43;16.95;;;6.25;;
25479;SDS011;13393;49.378;8.686;2023-04-25T09:16:09;12.15;;;6.38;;
25479;SDS011;13393;49.378;8.686;2023-04-25T09:18:36;10.65;;;6.07;;
25479;SDS011;13393;49.378;8.686;2023-04-25T09:21:06;13.30;;;5.85;;
25479;SDS011;13393;49.378;8.686;2023-04-25T09:23:38;11.65;;;6.10;;
25479;SDS011;13393;49.378;8.686;2023-04-25T09:26:05;14.40;;;6.05;;
25479;SDS011;13393;49.378;8.686;2023-04-25T09:28:32;9.30;;;4.75;;
25479;SDS011;13393;49.378;8.686;2023-04-25T09:31:00;10.07;;;5.75;;
25479;SDS011;13393;49.378;8.686;2023-04-25T09:33:27;12.27;;;5.70;;
25479;SDS011;13393;49.378;8.686;2023-04-25T09:35:56;8.88;;;5.18;;
25479;SDS011;13393;49.378;8.686;2023-04-25T09:38:28;9.88;;;4.80;;
25479;SDS011;13393;49.378;8.686;2023-04-25T09:40:55;10.13;;;5.50;;
25479;SDS011;13393;49.378;8.686;2023-04-25T09:43:22;10.07;;;5.40;;
25479;SDS011;13393;49.378;8.686;2023-04-25T09:45:49;9.13;;;5.05;;
25479;SDS011;13393;49.378;8.686;2023-04-25T09:48:17;10.27;;;5.53;;
25479;SDS011;13393;49.378;8.686;2023-04-25T09:50:44;11.52;;;5.07;;
25479;SDS011;13393;49.378;8.686;2023-04-25T09:53:10;10.20;;;5.13;;
25479;SDS011;13393;49.378;8.686;2023-04-25T09:55:38;9.27;;;4.70;;
25479;SDS011;13393;49.378;8.686;2023-04-25T09:58:05;11.50;;;4.63;;
25479;SDS011;13393;49.378;8.686;2023-04-25T10:00:32;15.52;;;5.55;;
25479;SDS011;13393;49.378;8.686;2023-04-25T10:03:00;10.30;;;4.75;;
25479;SDS011;13393;49.378;8.686;2023-04-25T10:05:28;8.85;;;5.25;;
25479;SDS011;13393;49.378;8.686;2023-04-25T10:07:56;9.27;;;4.88;;
25479;SDS011;13393;49.378;8.686;2023-04-25T10:10:23;10.38;;;5.18;;
25479;SDS011;13393;49.378;8.686;2023-04-25T10:12:53;10.68;;;4.57;;
25479;SDS011;13393;49.378;8.686;2023-04-25T10:15:21;7.18;;;4.30;;
25479;SDS011;13393;49.378;8.686;2023-04-25T10:17:47;9.90;;;4.70;;
25479;SDS011;13393;49.378;8.686;2023-04-25T10:20:14;11.48;;;4.80;;
25479;SDS011;13393;49.378;8.686;2023-04-25T10:22:41;9.35;;;4.95;;
25479;SDS011;13393;49.378;8.686;2023-04-25T10:25:08;11.23;;;4.68;;
25479;SDS011;13393;49.378;8.686;2023-04-25T10:27:34;8.38;;;4.65;;
25479;SDS011;13393;49.378;8.686;2023-04-25T10:30:03;10.45;;;4.53;;
25479;SDS011;13393;49.378;8.686;2023-04-25T10:32:31;10.07;;;5.15;;
25479;SDS011;13393;49.378;8.686;2023-04-25T10:35:06;8.88;;;5.63;;
25479;SDS011;13393;49.378;8.686;2023-04-25T10:37:35;13.88;;;5.38;;
25479;SDS011;13393;49.378;8.686;2023-04-25T10:40:07;11.07;;;4.78;;
25479;SDS011;13393;49.378;8.686;2023-04-25T10:42:34;10.95;;;4.72;;
25479;SDS011;13393;49.378;8.686;2023-04-25T10:45:01;12.18;;;5.00;;
25479;SDS011;13393;49.378;8.686;2023-04-25T10:47:35;10.90;;;5.03;;
25479;SDS011;13393;49.378;8.686;2023-04-25T10:50:04;12.13;;;5.10;;
25479;SDS011;13393;49.378;8.686;2023-04-25T10:52:32;10.90;;;4.60;;
25479;SDS011;13393;49.378;8.686;2023-04-25T10:54:59;9.32;;;5.10;;
25479;SDS011;13393;49.378;8.686;2023-04-25T10:57:32;12.73;;;5.35;;
25479;SDS011;13393;49.378;8.686;2023-04-25T11:00:00;8.63;;;5.47;;
25479;SDS011;13393;49.378;8.686;2023-04-25T11:02:30;9.10;;;4.60;;
25479;SDS011;13393;49.378;8.686;2023-04-25T11:04:58;8.82;;;4.63;;
25479;SDS011;13393;49.378;8.686;2023-04-25T11:07:26;9.63;;;4.55;;
25479;SDS011;13393;49.378;8.686;2023-04-25T11:09:55;8.20;;;5.25;;
25479;SDS011;13393;49.378;8.686;2023-04-25T11:12:22;10.30;;;4.88;;
25479;SDS011;13393;49.378;8.686;2023-04-25T11:14:50;9.18;;;5.10;;
25479;SDS011;13393;49.378;8.686;2023-04-25T11:17:24;12.00;;;5.40;;
25479;SDS011;13393;49.378;8.686;2023-04-25T11:19:51;10.98;;;5.28;;
25479;SDS011;13393;49.378;8.686;2023-04-25T11:22:18;11.15;;;5.20;;
25479;SDS011;13393;49.378;8.686;2023-04-25T11:24:47;11.55;;;5.55;;
25479;SDS011;13393;49.378;8.686;2023-04-25T11:27:13;12.75;;;5.10;;
25479;SDS011;13393;49.378;8.686;2023-04-25T11:29:40;10.98;;;5.18;;
25479;SDS011;13393;49.378;8.686;2023-04-25T11:32:06;9.75;;;5.65;;
25479;SDS011;13393;49.378;8.686;2023-04-25T11:34:33;10.15;;;5.53;;
25479;SDS011;13393;49.378;8.686;2023-04-25T11:37:00;11.00;;;5.60;;
25479;SDS011;13393;49.378;8.686;2023-04-25T11:39:28;10.18;;;5.30;;
25479;SDS011;13393;49.378;8.686;2023-04-25T11:41:55;10.75;;;5.07;;
25479;SDS011;13393;49.378;8.686;2023-04-25T11:44:21;7.97;;;4.82;;
25479;SDS011;13393;49.378;8.686;2023-04-25T11:46:48;7.15;;;4.40;;
25479;SDS011;13393;49.378;8.686;2023-04-25T11:49:14;7.68;;;3.83;;
25479;SDS011;13393;49.378;8.686;2023-04-25T11:51:43;7.57;;;3.60;;
25479;SDS011;13393;49.378;8.686;2023-04-25T11:54:10;7.47;;;3.90;;
25479;SDS011;13393;49.378;8.686;2023-04-25T11:56:38;9.55;;;4.40;;
25479;SDS011;13393;49.378;8.686;2023-04-25T11:59:07;8.00;;;3.60;;
25479;SDS011;13393;49.378;8.686;2023-04-25T12:01:33;8.00;;;3.85;;
25479;SDS011;13393;49.378;8.686;2023-04-25T12:04:10;7.97;;;3.63;;
25479;SDS011;13393;49.378;8.686;2023-04-25T12:06:36;6.63;;;3.50;;
25479;SDS011;13393;49.378;8.686;2023-04-25T12:09:04;5.20;;;3.00;;
25479;SDS011;13393;49.378;8.686;2023-04-25T12:11:30;8.15;;;3.15;;
25479;SDS011;13393;49.378;8.686;2023-04-25T12:14:02;6.45;;;3.10;;
25479;SDS011;13393;49.378;8.686;2023-04-25T12:16:29;7.43;;;3.60;;
25479;SDS011;13393;49.378;8.686;2023-04-25T12:18:56;7.28;;;3.25;;
25479;SDS011;13393;49.378;8.686;2023-04-25T12:21:24;9.52;;;3.20;;
25479;SDS011;13393;49.378;8.686;2023-04-25T12:23:54;7.03;;;3.28;;
25479;SDS011;13393;49.378;8.686;2023-04-25T12:26:20;7.47;;;3.15;;
25479;SDS011;13393;49.378;8.686;2023-04-25T12:28:47;8.93;;;4.18;;
25479;SDS011;13393;49.378;8.686;2023-04-25T12:31:14;7.82;;;3.90;;
25479;SDS011;13393;49.378;8.686;2023-04-25T12:33:41;8.65;;;3.03;;
25479;SDS011;13393;49.378;8.686;2023-04-25T12:36:08;5.38;;;3.20;;
25479;SDS011;13393;49.378;8.686;2023-04-25T12:38:37;5.20;;;3.53;;
25479;SDS011;13393;49.378;8.686;2023-04-25T12:41:04;8.00;;;3.95;;
25479;SDS011;13393;49.378;8.686;2023-04-25T12:43:31;6.15;;;3.60;;
25479;SDS011;13393;49.378;8.686;2023-04-25T12:45:57;7.15;;;3.30;;
25479;SDS011;13393;49.378;8.686;2023-04-25T12:48:25;4.63;;;2.92;;
25479;SDS011;13393;49.378;8.686;2023-04-25T12:50:51;5.22;;;3.13;;
25479;SDS011;13393;49.378;8.686;2023-04-25T12:53:18;4.15;;;3.47;;
25479;SDS011;13393;49.378;8.686;2023-04-25T12:55:45;6.50;;;4.00;;
25479;SDS011;13393;49.378;8.686;2023-04-25T12:58:12;9.05;;;3.80;;
25479;SDS011;13393;49.378;8.686;2023-04-25T13:00:38;10.15;;;4.00;;
25479;SDS011;13393;49.378;8.686;2023-04-25T13:03:04;7.03;;;3.70;;
25479;SDS011;13393;49.378;8.686;2023-04-25T13:05:32;9.70;;;3.90;;
25479;SDS011;13393;49.378;8.686;2023-04-25T13:07:58;6.22;;;3.55;;
25479;SDS011;13393;49.378;8.686;2023-04-25T13:10:25;5.47;;;3.15;;
25479;SDS011;13393;49.378;8.686;2023-04-25T13:12:51;7.45;;;3.28;;
25479;SDS011;13393;49.378;8.686;2023-04-25T13:15:18;5.07;;;3.90;;
25479;SDS011;13393;49.378;8.686;2023-04-25T13:17:44;6.55;;;3.70;;
25479;SDS011;13393;49.378;8.686;2023-04-25T13:20:10;7.25;;;3.90;;
25479;SDS011;13393;49.378;8.686;2023-04-25T13:22:38;5.88;;;3.67;;
25479;SDS011;13393;49.378;8.686;2023-04-25T13:25:05;5.55;;;3.78;;
25479;SDS011;13393;49.378;8.686;2023-04-25T13:27:32;5.70;;;3.65;;
25479;SDS011;13393;49.378;8.686;2023-04-25T13:29:59;5.82;;;3.65;;
25479;SDS011;13393;49.378;8.686;2023-04-25T13:32:26;6.15;;;4.13;;
25479;SDS011;13393;49.378;8.686;2023-04-25T13:34:52;8.20;;;4.38;;
25479;SDS011;13393;49.378;8.686;2023-04-25T13:37:18;4.32;;;3.47;;
25479;SDS011;13393;49.378;8.686;2023-04-25T13:39:46;4.45;;;3.90;;
25479;SDS011;13393;49.378;8.686;2023-04-25T13:42:13;5.55;;;3.88;;
25479;SDS011;13393;49.378;8.686;2023-04-25T13:44:39;6.18;;;3.80;;
25479;SDS011;13393;49.378;8.686;2023-04-25T13:47:06;6.82;;;4.20;;
25479;SDS011;13393;49.378;8.686;2023-04-25T13:49:32;8.23;;;3.72;;
25479;SDS011;13393;49.378;8.686;2023-04-25T13:51:58;6.45;;;3.65;;
25479;SDS011;13393;49.378;8.686;2023-04-25T13:54:25;4.45;;;3.70;;
25479;SDS011;13393;49.378;8.686;2023-04-25T13:56:52;6.65;;;3.97;;
25479;SDS011;13393;49.378;8.686;2023-04-25T13:59:23;6.38;;;3.60;;
25479;SDS011;13393;49.378;8.686;2023-04-25T14:01:50;7.05;;;3.95;;
25479;SDS011;13393;49.378;8.686;2023-04-25T14:04:16;8.23;;;4.20;;
25479;SDS011;13393;49.378;8.686;2023-04-25T14:06:43;6.70;;;4.05;;
25479;SDS011;13393;49.378;8.686;2023-04-25T14:09:09;8.48;;;4.13;;
25479;SDS011;13393;49.378;8.686;2023-04-25T14:11:38;8.38;;;4.10;;
25479;SDS011;13393;49.378;8.686;2023-04-25T14:14:06;7.43;;;4.28;;
25479;SDS011;13393;49.378;8.686;2023-04-25T14:16:32;10.02;;;4.82;;
25479;SDS011;13393;49.378;8.686;2023-04-25T14:18:58;7.28;;;3.85;;
25479;SDS011;13393;49.378;8.686;2023-04-25T14:21:25;5.35;;;3.75;;
25479;SDS011;13393;49.378;8.686;2023-04-25T14:23:52;9.10;;;4.03;;
25479;SDS011;13393;49.378;8.686;2023-04-25T14:26:18;6.63;;;3.10;;
25479;SDS011;13393;49.378;8.686;2023-04-25T14:28:44;7.25;;;4.32;;
25479;SDS011;13393;49.378;8.686;2023-04-25T14:31:12;6.18;;;3.95;;
25479;SDS011;13393;49.378;8.686;2023-04-25T14:33:38;8.00;;;4.00;;
25479;SDS011;13393;49.378;8.686;2023-04-25T14:36:07;8.10;;;4.28;;
25479;SDS011;13393;49.378;8.686;2023-04-25T14:38:34;9.45;;;4.22;;